»·PEaware :: LXJ505 KAWO-KEUG

LXJ505 :: KAWO-KEUG

FLIGHT INFORMATION

Flight Status: Arrived
Operator: Unknown
More flights by this operator :: More flights under this callsign
Pilot: Michael D. (17574)
Aircraft: PILATUS PC-12 EAGLE
(PC12)
More flights by this aircraft type
Origin: KAWO Arlington Mun
United States
Destination: KEUG Mahlon Sweet
United States
More flights between these airports :: More routes between these airports
Route: KAWO DCT CIDUG V495 BTG V182 OSWEG V23 CANBY DCT KEUG
File this flight plan on PilotEdge
Remarks:
Altitude:
(Current/Filed)
10,500ft
Speed:
(Current/Filed)
245kts
Departed: 16-Jun-19 03:14 PM
Arrived: 16-Jun-19 04:21 PM
Distance/Time
Traveled:
247nm/1:06
Distance/Time
To Go:
Arrived

Flight Plot

Page will automatically refresh every two minutes.


Map Options




Map Legend


Flown Route
Filed Route
Departure Airport
Arrival Airport
Navaid (VOR, NDB)
Fix

Horizontal Profiles

Position Reports

Time Latitude Longitude Heading Altitude Ground
Speed
16-Jun-19 15:04 48.160884 -122.153173 267 133ft 0kts
16-Jun-19 15:05 48.160884 -122.153173 267 133ft 0kts
16-Jun-19 15:06 48.160884 -122.153173 267 133ft 0kts
16-Jun-19 15:07 48.160883 -122.153200 267 133ft 1kts
16-Jun-19 15:08 48.159805 -122.154291 223 132ft 11kts
16-Jun-19 15:09 48.161538 -122.165149 301 132ft 30kts
16-Jun-19 15:10 48.161869 -122.168046 232 132ft 0kts
16-Jun-19 15:11 48.161869 -122.168046 232 132ft 0kts
16-Jun-19 15:12 48.161869 -122.168046 232 132ft 0kts
16-Jun-19 15:13 48.160910 -122.167247 127 132ft 47kts
16-Jun-19 15:14 48.143133 -122.129448 124 1526ft 127kts
16-Jun-19 15:15 48.120478 -122.088249 139 3625ft 133kts
16-Jun-19 15:16 48.085720 -122.070800 164 5715ft 136kts
16-Jun-19 15:17 48.049251 -122.059160 163 7810ft 134kts
16-Jun-19 15:18 48.013476 -122.049480 182 9899ft 132kts
16-Jun-19 15:19 47.970133 -122.072420 195 10526ft 211kts
16-Jun-19 15:20 47.908694 -122.105214 196 10519ft 249kts
16-Jun-19 15:21 47.848532 -122.141111 199 11698ft 229kts
16-Jun-19 15:22 47.790292 -122.177075 199 12806ft 227kts
16-Jun-19 15:23 47.731831 -122.213092 199 13812ft 229kts
16-Jun-19 15:24 47.672895 -122.249385 199 14819ft 230kts
16-Jun-19 15:25 47.611369 -122.277661 181 15491ft 238kts
16-Jun-19 15:26 47.544266 -122.287209 183 16001ft 245kts
16-Jun-19 15:28 47.476070 -122.300370 185 16507ft 248kts
16-Jun-19 15:29 47.406796 -122.314014 183 16659ft 259kts
16-Jun-19 15:30 47.333431 -122.326405 184 16509ft 267kts
16-Jun-19 15:31 47.259542 -122.339037 184 16509ft 267kts
16-Jun-19 15:32 47.185846 -122.351641 184 16508ft 267kts
16-Jun-19 15:33 47.112118 -122.364217 184 16509ft 266kts
16-Jun-19 15:34 47.038409 -122.376752 184 16508ft 267kts
16-Jun-19 15:35 46.964854 -122.389229 184 16509ft 267kts
16-Jun-19 15:36 46.893988 -122.401219 184 16500ft 267kts
16-Jun-19 15:37 46.820979 -122.413532 183 16501ft 267kts
16-Jun-19 15:38 46.747146 -122.425949 184 16499ft 268kts
16-Jun-19 15:39 46.672690 -122.438432 184 16349ft 272kts
16-Jun-19 15:40 46.596891 -122.451132 184 16057ft 275kts
16-Jun-19 15:41 46.520658 -122.463871 183 15763ft 276kts
16-Jun-19 15:42 46.444483 -122.476553 184 15505ft 274kts
16-Jun-19 15:43 46.369643 -122.488973 184 15500ft 268kts
16-Jun-19 15:44 46.295828 -122.501160 184 15500ft 267kts
16-Jun-19 15:45 46.221933 -122.513343 183 15500ft 267kts
16-Jun-19 15:46 46.148449 -122.525430 183 15500ft 266kts
16-Jun-19 15:47 46.074863 -122.537502 184 15500ft 266kts
16-Jun-19 15:47 46.013300 -122.547576 184 15500ft 267kts
16-Jun-19 15:48 45.939564 -122.559610 184 15490ft 267kts
16-Jun-19 15:50 45.853982 -122.573547 184 15491ft 266kts
16-Jun-19 15:50 45.792764 -122.583481 184 15501ft 266kts
16-Jun-19 15:51 45.719670 -122.601920 193 15501ft 269kts
16-Jun-19 15:53 45.635510 -122.635508 193 15501ft 269kts
16-Jun-19 15:53 45.575495 -122.659418 192 15499ft 269kts
16-Jun-19 15:54 45.503288 -122.688060 191 15499ft 268kts
16-Jun-19 15:55 45.431393 -122.716489 192 15499ft 268kts
16-Jun-19 15:56 45.359582 -122.744837 192 15499ft 268kts
16-Jun-19 15:57 45.287629 -122.773175 192 15499ft 268kts
16-Jun-19 15:58 45.215662 -122.801394 192 15498ft 268kts
16-Jun-19 15:59 45.143608 -122.829572 192 15498ft 268kts
16-Jun-19 16:00 45.071753 -122.857609 192 15498ft 268kts
16-Jun-19 16:01 44.998833 -122.886005 192 15000ft 278kts
16-Jun-19 16:02 44.924445 -122.914944 192 14491ft 276kts
16-Jun-19 16:03 44.851913 -122.947811 195 13992ft 276kts
16-Jun-19 16:04 44.779000 -122.975696 191 12674ft 266kts
16-Jun-19 16:05 44.708207 -122.999972 190 11271ft 259kts
16-Jun-19 16:06 44.639059 -123.024911 192 9872ft 256kts
16-Jun-19 16:07 44.570911 -123.051541 192 8473ft 250kts
16-Jun-19 16:08 44.506268 -123.076420 192 7069ft 236kts
16-Jun-19 16:09 44.445296 -123.099118 190 5835ft 216kts
16-Jun-19 16:10 44.390059 -123.118361 190 4813ft 204kts
16-Jun-19 16:11 44.333906 -123.138113 190 3816ft 210kts
16-Jun-19 16:12 44.277146 -123.158145 190 2816ft 210kts
16-Jun-19 16:13 44.226906 -123.173932 185 2008ft 159kts
16-Jun-19 16:14 44.187848 -123.174586 175 1998ft 126kts
16-Jun-19 16:15 44.152201 -123.174332 174 1999ft 130kts
16-Jun-19 16:16 44.116438 -123.172316 172 1996ft 122kts
16-Jun-19 16:17 44.085812 -123.180522 236 1888ft 125kts
16-Jun-19 16:18 44.092461 -123.220001 357 1141ft 109kts
16-Jun-19 16:19 44.118617 -123.218868 3 365ft 48kts
16-Jun-19 16:20 44.120169 -123.217716 132 365ft 0kts
16-Jun-19 16:21 44.119333 -123.216454 130 366ft 7kts
16-Jun-19 16:22 44.117862 -123.215234 215 368ft 0kts
16-Jun-19 16:23 44.117862 -123.215234 215 368ft 0kts

Navigation Log

Ident Type
Flight plan parsing failed, navigation log unavailable